ADDS METAR Data INFO
IDs: Format: Raw Decoded Include TAF

Data at: 1918 UTC 23 Apr 2018

KOFP 231854Z AUTO VRB06KT 10SM BKN060 20/07 A3037 RMK AO2 SLP284 T02000067
KOFP 231754Z AUTO 10SM BKN050 20/07 A3038 RMK AO2 SLP285 T02000072 10211 20094 58014
KOFP 231654Z AUTO 16010KT 10SM SCT050 SCT065 20/08 A3039 RMK AO2 SLP292 T02000078
KOFP 231554Z AUTO VRB06KT 10SM SCT045 BKN055 19/08 A3041 RMK AO2 SLP297 T01890083
KOFP 231454Z AUTO 10SM CLR 18/09 A3042 RMK AO2 SLP299 T01830089 58001
KOFP 231354Z AUTO VRB03KT 10SM CLR 16/08 A3042 RMK AO2 SLP301 T01610083
KOFP 231254Z AUTO 06005KT 10SM CLR 13/07 A3042 RMK AO2 SLP301 T01280067
KOFP 231154Z AUTO 06003KT 10SM CLR 09/06 A3042 RMK AO2 SLP300 T00940061 10100 20056 53009
KOFP 231054Z AUTO 00000KT 10SM CLR 06/04 A3041 RMK AO2 SLP298 T00560044
KOFP 230954Z AUTO 00000KT 10SM CLR 06/04 A3039 RMK AO2 SLP292 T00610044
KOFP 230854Z AUTO 00000KT 10SM SCT080 08/04 A3039 RMK AO2 SLP291 T00780044 53002
KOFP 230754Z AUTO 00000KT 10SM OVC080 09/04 A3039 RMK AO2 SLP289 T00890044
KOFP 230654Z AUTO 10003KT 10SM OVC080 10/04 A3038 RMK AO2 SLP287 T01000039
KOFP 230554Z AUTO 10003KT 10SM OVC080 10/04 A3038 RMK AO2 SLP288 T01000039 10150 20083 50003
KOFP 230454Z AUTO 09003KT 10SM CLR 09/04 A3039 RMK AO2 SLP290 T00890039 402060056
KOFP 230354Z AUTO 00000KT 10SM CLR 11/03 A3039 RMK AO2 SLP289 T01060033
KOFP 230254Z AUTO 00000KT 10SM CLR 12/02 A3038 RMK AO2 SLP286 T01220022 51011
KOFP 230154Z AUTO VRB04KT 10SM CLR 13/02 A3037 RMK AO2 SLP282 T01330017
KOFP 230054Z AUTO VRB03KT 10SM CLR 14/02 A3035 RMK AO2 SLP278 T01390017
KOFP 222354Z AUTO VRB04KT 10SM CLR 15/02 A3034 RMK AO2 SLP274 T01500022 10206 20150 53010
KOFP 222254Z AUTO VRB06G17KT 10SM CLR 16/03 A3032 RMK AO2 SLP267 T01610028
KOFP 222154Z AUTO 09005KT 10SM CLR 18/05 A3031 RMK AO2 SLP263 T01780050
KOFP 222054Z AUTO VRB06KT 10SM CLR 19/05 A3031 RMK AO2 SLP264 T01940050 58014
KOFP 221954Z AUTO VRB06KT 10SM FEW060 20/06 A3032 RMK AO2 SLP268 T02000056
KOFP 221854Z AUTO 00000KT 10SM CLR 19/06 A3035 RMK AO2 SLP275 T01940056
KOFP 221754Z AUTO 18010KT 10SM FEW055 20/06 A3036 RMK AO2 SLP278 T02000061 10206 20083 56015
KOFP 221654Z AUTO 10SM CLR 19/07 A3037 RMK AO2 SLP283 T01890067
KOFP 221554Z AUTO 00000KT 10SM CLR 17/06 A3038 RMK AO2 SLP288 T01720056
KOFP 221454Z AUTO VRB04KT 10SM CLR 15/06 A3040 RMK AO2 SLP293 T01500056 58004
KOFP 221354Z AUTO 16008KT 10SM CLR 13/06 A3041 RMK AO2 SLP296 T01330061
KOFP 221254Z AUTO 18006KT 10SM CLR 12/06 A3041 RMK AO2 SLP297 T01170061
KOFP 221154Z AUTO 00000KT 10SM CLR 08/05 A3041 RMK AO2 SLP298 T00830050 10100 20056 51007
KOFP 221054Z AUTO 00000KT 10SM CLR 06/04 A3041 RMK AO2 SLP296 T00560039
KOFP 220954Z AUTO 11003KT 10SM CLR 07/04 A3039 RMK AO2 SLP291 T00670044
KOFP 220854Z AUTO 00000KT 10SM CLR 09/04 A3039 RMK AO2 SLP289 T00890044 55004
KOFP 220754Z AUTO 16004KT 10SM CLR 09/05 A3039 RMK AO2 SLP289 T00940050